Terminal Aerodrome Forecast
Issued by NWS

Home | Current Version | Previous Version | Text Only | Print | Product List | Glossary On
Versions: 1 2 3 4 5 6 7 8 9 10 11 12 13 14 15 16 17
000
FTUS45 KRIW 261730
TAFPNA
TAF
KPNA 261730Z 2618/2718 30006KT P6SM VCSH SCT050
     FM262000 28008KT P6SM VCTS SCT035CB BKN050
     FM270200 31006KT P6SM VCSH SCT030 BKN045
     FM271000 30006KT P6SM SCT040 BKN070
      AMD LTD TO CLD VIS AND WIND=

USA.gov is the U.S. government's official web portal to all federal, state and local government web resources and services.